KMWK

Details ICAO KMWK
Name MT AIRY SURRY CO
Region United States
Timezone America/New_York (UTC-5.0)
Plans Departing 9
Arriving 7
Stats Elevation 1,247 ft / 380 m (AMSL)
Location 36.459735° -80.552959°
Runways 1
Magnetic Variation 8.160° W
Sunrise 2017-12-18 12:30:07 UTC / 2017-12-18 07:30:07 Local
Sunset 2017-12-18 22:10:27 UTC / 2017-12-18 17:10:27 Local
Advertisement - Login to hide

Runways

ID Width Length Bearing (true) Bearing (mag) Surface Threshold Offset Overrun Length
18 75 ft / 23 m 4,312 ft / 1,314 m 173.29° 181.45° Asphalt 500 ft / 152 m 0 ft / 0 m
36 75 ft / 23 m 4,312 ft / 1,314 m 353.29° 1.45° Asphalt 0 ft / 0 m 0 ft / 0 m

Map

Weather


0- 5 10 15 20 25 30 35+ Temperature / ° C

Clouds and Precipitation
Forecast for 2017-12-18 12:00 UTC. Updated 2 hours ago

Ground ~20,000 ft ~40,000 ft Winds

METAR

KMWK 181025Z AUTO 00000KT 10SM OVC043 04/01 A3016 RMK AO2 T00410013

TAF

Not found

Frequencies

Recorded 121.12 MHz AWOS 3
Approach 124.35 MHz GREENSBORO APP/DEP
Unicom 123.00 MHz CTAF/UNICOM
Warning: Do not use this data for real-world aviation or navigation. No guarantee of current accuracy is given.